Shaftsburg, Michigan
Current Conditions -  °F | °C
As of 3:53 AM on Thursday 27 Nov 2014 (Local Time) from KLAN Reporting Station
Overcast Overcast  
Wind Chill: -5°   Ceiling: 3700
Heat Index: -2°   Visibility: 10mi
Dew Point: -6°   Wind: 5mph
Humidity: 75%   Direction: 280°W
Pressure: 30.12"   Gusts: NA
Location:  42.8°N, 84.29°W
Report Text: KLAN 270853Z 28004KT 10SM OVC037 M02/M06 A3012 RMK AO2 SLP213 T10221061 55000
Loading
Personal Weather Stations






























Interactive Weather Map New forecast layout! Learn more

10-Day Weather Forecast

Advertisements
Track Severe Weather on mobile